sensor_id;sensor_type;location;lat;lon;timestamp;P1;durP1;ratioP1;P2;durP2;ratioP2
27223;SDS011;14965;50.660;13.226;2024-01-15T00:01:03;21.73;;;9.00;;
27223;SDS011;14965;50.660;13.226;2024-01-15T00:03:29;21.58;;;9.32;;
27223;SDS011;14965;50.660;13.226;2024-01-15T00:05:54;20.35;;;9.32;;
27223;SDS011;14965;50.660;13.226;2024-01-15T00:08:20;19.23;;;7.93;;
27223;SDS011;14965;50.660;13.226;2024-01-15T00:10:47;22.13;;;8.90;;
27223;SDS011;14965;50.660;13.226;2024-01-15T00:13:13;19.23;;;8.88;;
27223;SDS011;14965;50.660;13.226;2024-01-15T00:15:39;23.35;;;9.40;;
27223;SDS011;14965;50.660;13.226;2024-01-15T00:18:05;19.35;;;8.85;;
27223;SDS011;14965;50.660;13.226;2024-01-15T00:20:31;18.75;;;8.63;;
27223;SDS011;14965;50.660;13.226;2024-01-15T00:22:57;17.05;;;8.32;;
27223;SDS011;14965;50.660;13.226;2024-01-15T00:25:23;22.42;;;8.20;;
27223;SDS011;14965;50.660;13.226;2024-01-15T00:27:50;23.27;;;8.85;;
27223;SDS011;14965;50.660;13.226;2024-01-15T00:30:16;19.98;;;9.10;;
27223;SDS011;14965;50.660;13.226;2024-01-15T00:32:42;18.38;;;8.38;;
27223;SDS011;14965;50.660;13.226;2024-01-15T00:35:08;19.08;;;9.02;;
27223;SDS011;14965;50.660;13.226;2024-01-15T00:37:34;21.95;;;9.45;;
27223;SDS011;14965;50.660;13.226;2024-01-15T00:40:00;24.02;;;9.82;;
27223;SDS011;14965;50.660;13.226;2024-01-15T00:42:26;21.02;;;9.00;;
27223;SDS011;14965;50.660;13.226;2024-01-15T00:44:53;23.40;;;8.90;;
27223;SDS011;14965;50.660;13.226;2024-01-15T00:47:19;22.48;;;9.05;;
27223;SDS011;14965;50.660;13.226;2024-01-15T00:49:45;23.50;;;10.55;;
27223;SDS011;14965;50.660;13.226;2024-01-15T00:52:11;25.20;;;11.68;;
27223;SDS011;14965;50.660;13.226;2024-01-15T00:54:37;56.70;;;30.58;;
27223;SDS011;14965;50.660;13.226;2024-01-15T00:57:03;23.02;;;12.75;;
27223;SDS011;14965;50.660;13.226;2024-01-15T00:59:29;26.88;;;12.55;;
27223;SDS011;14965;50.660;13.226;2024-01-15T01:01:56;25.67;;;12.82;;
27223;SDS011;14965;50.660;13.226;2024-01-15T01:04:22;27.38;;;13.43;;
27223;SDS011;14965;50.660;13.226;2024-01-15T01:06:48;23.20;;;10.95;;
27223;SDS011;14965;50.660;13.226;2024-01-15T01:09:14;21.35;;;9.75;;
27223;SDS011;14965;50.660;13.226;2024-01-15T01:11:40;23.92;;;10.38;;
27223;SDS011;14965;50.660;13.226;2024-01-15T01:14:06;21.10;;;9.82;;
27223;SDS011;14965;50.660;13.226;2024-01-15T01:16:32;22.05;;;9.82;;
27223;SDS011;14965;50.660;13.226;2024-01-15T01:18:59;24.25;;;12.30;;
27223;SDS011;14965;50.660;13.226;2024-01-15T01:21:25;31.80;;;15.65;;
27223;SDS011;14965;50.660;13.226;2024-01-15T01:23:51;27.88;;;11.52;;
27223;SDS011;14965;50.660;13.226;2024-01-15T01:26:17;23.33;;;9.63;;
27223;SDS011;14965;50.660;13.226;2024-01-15T01:28:43;27.80;;;11.38;;
27223;SDS011;14965;50.660;13.226;2024-01-15T01:31:09;27.75;;;11.18;;
27223;SDS011;14965;50.660;13.226;2024-01-15T01:33:34;25.77;;;11.02;;
27223;SDS011;14965;50.660;13.226;2024-01-15T01:36:02;27.25;;;11.75;;
27223;SDS011;14965;50.660;13.226;2024-01-15T01:38:33;30.70;;;12.18;;
27223;SDS011;14965;50.660;13.226;2024-01-15T01:40:58;30.75;;;14.30;;
27223;SDS011;14965;50.660;13.226;2024-01-15T01:43:24;33.63;;;12.90;;
27223;SDS011;14965;50.660;13.226;2024-01-15T01:45:50;29.25;;;12.23;;
27223;SDS011;14965;50.660;13.226;2024-01-15T01:48:16;28.50;;;12.13;;
27223;SDS011;14965;50.660;13.226;2024-01-15T01:50:42;29.50;;;12.60;;
27223;SDS011;14965;50.660;13.226;2024-01-15T01:53:10;28.88;;;12.85;;
27223;SDS011;14965;50.660;13.226;2024-01-15T01:55:36;31.52;;;12.88;;
27223;SDS011;14965;50.660;13.226;2024-01-15T01:58:03;31.10;;;13.07;;
27223;SDS011;14965;50.660;13.226;2024-01-15T02:00:30;28.15;;;12.18;;
27223;SDS011;14965;50.660;13.226;2024-01-15T02:02:59;28.05;;;12.15;;
27223;SDS011;14965;50.660;13.226;2024-01-15T02:05:25;28.63;;;12.18;;
27223;SDS011;14965;50.660;13.226;2024-01-15T02:07:52;31.42;;;12.98;;
27223;SDS011;14965;50.660;13.226;2024-01-15T02:10:19;28.02;;;12.82;;
27223;SDS011;14965;50.660;13.226;2024-01-15T02:12:45;31.30;;;12.85;;
27223;SDS011;14965;50.660;13.226;2024-01-15T02:15:11;30.40;;;13.32;;
27223;SDS011;14965;50.660;13.226;2024-01-15T02:20:25;27.17;;;12.82;;
27223;SDS011;14965;50.660;13.226;2024-01-15T02:22:51;29.80;;;12.60;;
27223;SDS011;14965;50.660;13.226;2024-01-15T02:25:19;31.20;;;12.73;;
27223;SDS011;14965;50.660;13.226;2024-01-15T02:27:46;29.65;;;12.60;;
27223;SDS011;14965;50.660;13.226;2024-01-15T02:30:12;29.75;;;12.43;;
27223;SDS011;14965;50.660;13.226;2024-01-15T02:32:38;28.30;;;12.70;;
27223;SDS011;14965;50.660;13.226;2024-01-15T02:35:04;27.08;;;11.82;;
27223;SDS011;14965;50.660;13.226;2024-01-15T02:37:31;25.55;;;11.80;;
27223;SDS011;14965;50.660;13.226;2024-01-15T02:39:56;30.27;;;13.38;;
27223;SDS011;14965;50.660;13.226;2024-01-15T02:42:24;30.85;;;12.90;;
27223;SDS011;14965;50.660;13.226;2024-01-15T02:44:51;27.67;;;12.32;;
27223;SDS011;14965;50.660;13.226;2024-01-15T02:47:17;26.98;;;11.23;;
27223;SDS011;14965;50.660;13.226;2024-01-15T02:49:43;32.65;;;12.48;;
27223;SDS011;14965;50.660;13.226;2024-01-15T02:52:09;33.20;;;12.93;;
27223;SDS011;14965;50.660;13.226;2024-01-15T02:54:35;25.92;;;11.10;;
27223;SDS011;14965;50.660;13.226;2024-01-15T02:57:01;29.13;;;12.15;;
27223;SDS011;14965;50.660;13.226;2024-01-15T02:59:28;29.08;;;12.48;;
27223;SDS011;14965;50.660;13.226;2024-01-15T03:01:54;28.80;;;12.80;;
27223;SDS011;14965;50.660;13.226;2024-01-15T03:04:19;31.23;;;13.35;;
27223;SDS011;14965;50.660;13.226;2024-01-15T03:06:45;35.58;;;13.48;;
27223;SDS011;14965;50.660;13.226;2024-01-15T03:09:11;29.98;;;12.35;;
27223;SDS011;14965;50.660;13.226;2024-01-15T03:11:37;32.38;;;13.63;;
27223;SDS011;14965;50.660;13.226;2024-01-15T03:14:04;35.63;;;14.25;;
27223;SDS011;14965;50.660;13.226;2024-01-15T03:16:31;32.95;;;13.93;;
27223;SDS011;14965;50.660;13.226;2024-01-15T03:18:57;35.08;;;13.63;;
27223;SDS011;14965;50.660;13.226;2024-01-15T03:21:23;31.10;;;13.63;;
27223;SDS011;14965;50.660;13.226;2024-01-15T03:23:49;30.38;;;13.52;;
27223;SDS011;14965;50.660;13.226;2024-01-15T03:26:14;31.25;;;12.93;;
27223;SDS011;14965;50.660;13.226;2024-01-15T03:28:40;28.90;;;12.52;;
27223;SDS011;14965;50.660;13.226;2024-01-15T03:31:07;30.95;;;13.30;;
27223;SDS011;14965;50.660;13.226;2024-01-15T03:33:34;31.13;;;14.07;;
27223;SDS011;14965;50.660;13.226;2024-01-15T03:36:00;34.67;;;14.05;;
27223;SDS011;14965;50.660;13.226;2024-01-15T03:38:27;33.40;;;13.45;;
27223;SDS011;14965;50.660;13.226;2024-01-15T03:40:54;31.45;;;13.45;;
27223;SDS011;14965;50.660;13.226;2024-01-15T03:43:19;36.83;;;14.30;;
27223;SDS011;14965;50.660;13.226;2024-01-15T03:45:45;35.30;;;14.60;;
27223;SDS011;14965;50.660;13.226;2024-01-15T03:48:11;33.22;;;14.05;;
27223;SDS011;14965;50.660;13.226;2024-01-15T03:50:38;30.83;;;13.43;;
27223;SDS011;14965;50.660;13.226;2024-01-15T03:53:04;36.20;;;13.88;;
27223;SDS011;14965;50.660;13.226;2024-01-15T03:55:30;37.70;;;14.75;;
27223;SDS011;14965;50.660;13.226;2024-01-15T03:57:56;34.40;;;14.60;;
27223;SDS011;14965;50.660;13.226;2024-01-15T04:00:22;32.83;;;13.73;;
27223;SDS011;14965;50.660;13.226;2024-01-15T04:02:48;36.00;;;14.88;;
27223;SDS011;14965;50.660;13.226;2024-01-15T04:05:14;32.80;;;14.43;;
27223;SDS011;14965;50.660;13.226;2024-01-15T04:07:41;34.85;;;14.45;;
27223;SDS011;14965;50.660;13.226;2024-01-15T04:10:07;39.85;;;15.05;;
27223;SDS011;14965;50.660;13.226;2024-01-15T04:12:33;34.42;;;14.48;;
27223;SDS011;14965;50.660;13.226;2024-01-15T04:14:59;33.83;;;14.43;;
27223;SDS011;14965;50.660;13.226;2024-01-15T04:17:25;36.42;;;14.55;;
27223;SDS011;14965;50.660;13.226;2024-01-15T04:19:52;42.28;;;16.10;;
27223;SDS011;14965;50.660;13.226;2024-01-15T04:22:17;38.53;;;15.82;;
27223;SDS011;14965;50.660;13.226;2024-01-15T04:24:45;43.72;;;15.65;;
27223;SDS011;14965;50.660;13.226;2024-01-15T04:27:10;36.20;;;14.48;;
27223;SDS011;14965;50.660;13.226;2024-01-15T04:29:37;39.13;;;15.38;;
27223;SDS011;14965;50.660;13.226;2024-01-15T04:32:03;38.78;;;16.45;;
27223;SDS011;14965;50.660;13.226;2024-01-15T04:34:30;38.92;;;15.25;;
27223;SDS011;14965;50.660;13.226;2024-01-15T04:36:56;36.97;;;14.73;;
27223;SDS011;14965;50.660;13.226;2024-01-15T04:39:22;41.55;;;16.58;;
27223;SDS011;14965;50.660;13.226;2024-01-15T04:41:49;46.78;;;16.60;;
27223;SDS011;14965;50.660;13.226;2024-01-15T04:44:15;43.00;;;16.45;;
27223;SDS011;14965;50.660;13.226;2024-01-15T04:46:40;43.30;;;15.60;;
27223;SDS011;14965;50.660;13.226;2024-01-15T04:49:06;41.13;;;16.38;;
27223;SDS011;14965;50.660;13.226;2024-01-15T04:51:32;42.30;;;15.88;;
27223;SDS011;14965;50.660;13.226;2024-01-15T04:53:59;43.03;;;16.40;;
27223;SDS011;14965;50.660;13.226;2024-01-15T04:56:25;48.00;;;18.40;;
27223;SDS011;14965;50.660;13.226;2024-01-15T04:58:53;50.33;;;19.75;;
27223;SDS011;14965;50.660;13.226;2024-01-15T05:01:19;41.00;;;16.38;;
27223;SDS011;14965;50.660;13.226;2024-01-15T05:03:45;45.55;;;17.30;;
27223;SDS011;14965;50.660;13.226;2024-01-15T05:06:11;51.67;;;19.50;;
27223;SDS011;14965;50.660;13.226;2024-01-15T05:08:36;42.42;;;17.38;;
27223;SDS011;14965;50.660;13.226;2024-01-15T05:11:02;47.70;;;17.73;;
27223;SDS011;14965;50.660;13.226;2024-01-15T05:13:28;54.03;;;20.40;;
27223;SDS011;14965;50.660;13.226;2024-01-15T05:15:56;38.92;;;15.45;;
27223;SDS011;14965;50.660;13.226;2024-01-15T05:18:22;61.67;;;23.13;;
27223;SDS011;14965;50.660;13.226;2024-01-15T05:20:47;38.28;;;15.18;;
27223;SDS011;14965;50.660;13.226;2024-01-15T05:23:13;43.22;;;16.80;;
27223;SDS011;14965;50.660;13.226;2024-01-15T05:25:39;42.28;;;16.08;;
27223;SDS011;14965;50.660;13.226;2024-01-15T05:28:05;41.95;;;15.70;;
27223;SDS011;14965;50.660;13.226;2024-01-15T05:30:31;41.08;;;15.57;;
27223;SDS011;14965;50.660;13.226;2024-01-15T05:32:58;47.08;;;18.85;;
27223;SDS011;14965;50.660;13.226;2024-01-15T05:35:24;38.42;;;15.43;;
27223;SDS011;14965;50.660;13.226;2024-01-15T05:37:50;57.38;;;22.50;;
27223;SDS011;14965;50.660;13.226;2024-01-15T05:40:16;38.80;;;14.63;;
27223;SDS011;14965;50.660;13.226;2024-01-15T05:42:42;60.55;;;22.98;;
27223;SDS011;14965;50.660;13.226;2024-01-15T05:45:08;39.50;;;16.45;;
27223;SDS011;14965;50.660;13.226;2024-01-15T05:47:34;34.60;;;14.48;;
27223;SDS011;14965;50.660;13.226;2024-01-15T05:50:01;36.35;;;14.75;;
27223;SDS011;14965;50.660;13.226;2024-01-15T05:52:28;35.45;;;15.15;;
27223;SDS011;14965;50.660;13.226;2024-01-15T05:54:53;31.20;;;14.18;;
27223;SDS011;14965;50.660;13.226;2024-01-15T05:57:19;35.90;;;16.77;;
27223;SDS011;14965;50.660;13.226;2024-01-15T05:59:45;38.13;;;15.25;;
27223;SDS011;14965;50.660;13.226;2024-01-15T06:02:11;35.40;;;13.93;;
27223;SDS011;14965;50.660;13.226;2024-01-15T06:04:37;36.80;;;14.32;;
27223;SDS011;14965;50.660;13.226;2024-01-15T06:07:04;33.33;;;13.68;;
27223;SDS011;14965;50.660;13.226;2024-01-15T06:09:30;35.90;;;16.73;;
27223;SDS011;14965;50.660;13.226;2024-01-15T06:11:56;34.40;;;14.75;;
27223;SDS011;14965;50.660;13.226;2024-01-15T06:14:22;39.58;;;14.70;;
27223;SDS011;14965;50.660;13.226;2024-01-15T06:16:48;36.42;;;15.10;;
27223;SDS011;14965;50.660;13.226;2024-01-15T06:19:14;34.28;;;14.65;;
27223;SDS011;14965;50.660;13.226;2024-01-15T06:21:39;38.75;;;15.90;;
27223;SDS011;14965;50.660;13.226;2024-01-15T06:24:07;43.08;;;17.35;;
27223;SDS011;14965;50.660;13.226;2024-01-15T06:26:33;32.25;;;14.93;;
27223;SDS011;14965;50.660;13.226;2024-01-15T06:28:58;36.55;;;16.38;;
27223;SDS011;14965;50.660;13.226;2024-01-15T06:31:24;34.90;;;13.82;;
27223;SDS011;14965;50.660;13.226;2024-01-15T06:33:53;35.40;;;14.00;;
27223;SDS011;14965;50.660;13.226;2024-01-15T06:36:20;33.83;;;13.85;;
27223;SDS011;14965;50.660;13.226;2024-01-15T06:38:46;37.35;;;13.70;;
27223;SDS011;14965;50.660;13.226;2024-01-15T06:41:13;32.25;;;12.80;;
27223;SDS011;14965;50.660;13.226;2024-01-15T06:43:39;29.60;;;13.60;;
27223;SDS011;14965;50.660;13.226;2024-01-15T06:46:05;35.70;;;13.00;;
27223;SDS011;14965;50.660;13.226;2024-01-15T06:48:31;32.53;;;13.13;;
27223;SDS011;14965;50.660;13.226;2024-01-15T06:50:57;28.33;;;12.27;;
27223;SDS011;14965;50.660;13.226;2024-01-15T06:53:23;30.00;;;12.20;;
27223;SDS011;14965;50.660;13.226;2024-01-15T06:55:48;30.45;;;12.35;;
27223;SDS011;14965;50.660;13.226;2024-01-15T06:58:16;28.83;;;11.88;;
27223;SDS011;14965;50.660;13.226;2024-01-15T07:00:42;27.60;;;11.85;;
27223;SDS011;14965;50.660;13.226;2024-01-15T07:03:08;26.42;;;11.27;;
27223;SDS011;14965;50.660;13.226;2024-01-15T07:05:34;24.60;;;10.55;;
27223;SDS011;14965;50.660;13.226;2024-01-15T07:08:00;25.60;;;11.05;;
27223;SDS011;14965;50.660;13.226;2024-01-15T07:10:26;27.35;;;11.52;;
27223;SDS011;14965;50.660;13.226;2024-01-15T07:12:51;26.60;;;11.77;;
27223;SDS011;14965;50.660;13.226;2024-01-15T07:15:19;27.17;;;10.15;;
27223;SDS011;14965;50.660;13.226;2024-01-15T07:17:45;26.73;;;11.18;;
27223;SDS011;14965;50.660;13.226;2024-01-15T07:20:11;28.27;;;11.43;;
27223;SDS011;14965;50.660;13.226;2024-01-15T07:22:37;29.98;;;11.88;;
27223;SDS011;14965;50.660;13.226;2024-01-15T07:25:03;34.17;;;11.07;;
27223;SDS011;14965;50.660;13.226;2024-01-15T07:27:30;27.30;;;10.95;;
27223;SDS011;14965;50.660;13.226;2024-01-15T07:29:56;28.98;;;11.65;;
27223;SDS011;14965;50.660;13.226;2024-01-15T07:32:23;30.33;;;11.23;;
27223;SDS011;14965;50.660;13.226;2024-01-15T07:34:49;26.55;;;11.02;;
27223;SDS011;14965;50.660;13.226;2024-01-15T07:37:15;28.67;;;11.60;;
27223;SDS011;14965;50.660;13.226;2024-01-15T07:39:41;26.98;;;10.40;;
27223;SDS011;14965;50.660;13.226;2024-01-15T07:42:07;24.73;;;10.75;;
27223;SDS011;14965;50.660;13.226;2024-01-15T07:44:33;28.48;;;11.18;;
27223;SDS011;14965;50.660;13.226;2024-01-15T07:46:59;25.25;;;10.25;;
27223;SDS011;14965;50.660;13.226;2024-01-15T07:49:26;24.67;;;10.15;;
27223;SDS011;14965;50.660;13.226;2024-01-15T07:51:52;24.65;;;10.23;;
27223;SDS011;14965;50.660;13.226;2024-01-15T07:54:18;24.65;;;10.43;;
27223;SDS011;14965;50.660;13.226;2024-01-15T07:56:53;24.33;;;10.88;;
27223;SDS011;14965;50.660;13.226;2024-01-15T07:59:20;26.67;;;10.98;;
27223;SDS011;14965;50.660;13.226;2024-01-15T08:01:46;28.65;;;11.80;;
27223;SDS011;14965;50.660;13.226;2024-01-15T08:04:12;26.50;;;11.23;;
27223;SDS011;14965;50.660;13.226;2024-01-15T08:06:39;25.48;;;11.00;;
27223;SDS011;14965;50.660;13.226;2024-01-15T08:09:05;28.15;;;11.55;;
27223;SDS011;14965;50.660;13.226;2024-01-15T08:11:31;27.13;;;11.02;;
27223;SDS011;14965;50.660;13.226;2024-01-15T08:13:57;24.83;;;10.10;;
27223;SDS011;14965;50.660;13.226;2024-01-15T08:16:24;25.20;;;11.30;;
27223;SDS011;14965;50.660;13.226;2024-01-15T08:18:49;26.52;;;11.40;;
27223;SDS011;14965;50.660;13.226;2024-01-15T08:21:15;26.75;;;11.15;;
27223;SDS011;14965;50.660;13.226;2024-01-15T08:23:43;23.67;;;10.70;;
27223;SDS011;14965;50.660;13.226;2024-01-15T08:26:09;27.80;;;10.48;;
27223;SDS011;14965;50.660;13.226;2024-01-15T08:28:36;27.33;;;11.13;;
27223;SDS011;14965;50.660;13.226;2024-01-15T08:31:02;24.05;;;10.73;;
27223;SDS011;14965;50.660;13.226;2024-01-15T08:33:28;27.80;;;12.38;;
27223;SDS011;14965;50.660;13.226;2024-01-15T08:35:54;26.00;;;10.85;;
27223;SDS011;14965;50.660;13.226;2024-01-15T08:38:20;24.25;;;10.38;;
27223;SDS011;14965;50.660;13.226;2024-01-15T08:40:47;25.15;;;10.52;;
27223;SDS011;14965;50.660;13.226;2024-01-15T08:43:14;21.58;;;9.85;;
27223;SDS011;14965;50.660;13.226;2024-01-15T08:45:42;23.85;;;10.00;;
27223;SDS011;14965;50.660;13.226;2024-01-15T08:48:08;22.70;;;9.75;;
27223;SDS011;14965;50.660;13.226;2024-01-15T08:50:34;23.75;;;10.07;;
27223;SDS011;14965;50.660;13.226;2024-01-15T08:53:00;29.58;;;10.73;;
27223;SDS011;14965;50.660;13.226;2024-01-15T08:55:26;24.50;;;10.52;;
27223;SDS011;14965;50.660;13.226;2024-01-15T08:57:53;23.70;;;10.52;;
27223;SDS011;14965;50.660;13.226;2024-01-15T09:00:19;26.52;;;12.27;;
27223;SDS011;14965;50.660;13.226;2024-01-15T09:02:45;27.73;;;10.27;;
27223;SDS011;14965;50.660;13.226;2024-01-15T09:05:11;24.70;;;10.60;;
27223;SDS011;14965;50.660;13.226;2024-01-15T09:07:37;22.75;;;10.43;;
27223;SDS011;14965;50.660;13.226;2024-01-15T09:10:03;24.20;;;11.00;;
27223;SDS011;14965;50.660;13.226;2024-01-15T09:12:30;22.92;;;9.85;;
27223;SDS011;14965;50.660;13.226;2024-01-15T09:14:57;27.15;;;10.23;;
27223;SDS011;14965;50.660;13.226;2024-01-15T09:17:23;26.30;;;11.07;;
27223;SDS011;14965;50.660;13.226;2024-01-15T09:19:49;19.60;;;8.93;;
27223;SDS011;14965;50.660;13.226;2024-01-15T09:22:15;22.38;;;9.40;;
27223;SDS011;14965;50.660;13.226;2024-01-15T09:24:44;22.02;;;9.65;;
27223;SDS011;14965;50.660;13.226;2024-01-15T09:27:10;18.55;;;8.50;;
27223;SDS011;14965;50.660;13.226;2024-01-15T09:29:36;24.70;;;10.27;;
27223;SDS011;14965;50.660;13.226;2024-01-15T09:32:04;22.02;;;9.18;;
27223;SDS011;14965;50.660;13.226;2024-01-15T09:34:30;20.15;;;8.90;;
27223;SDS011;14965;50.660;13.226;2024-01-15T09:36:56;24.63;;;9.70;;
27223;SDS011;14965;50.660;13.226;2024-01-15T09:39:22;22.77;;;8.88;;
27223;SDS011;14965;50.660;13.226;2024-01-15T09:41:48;23.20;;;8.55;;
27223;SDS011;14965;50.660;13.226;2024-01-15T09:44:14;20.20;;;8.40;;
27223;SDS011;14965;50.660;13.226;2024-01-15T09:46:42;21.08;;;8.38;;
27223;SDS011;14965;50.660;13.226;2024-01-15T09:49:09;21.58;;;8.20;;
27223;SDS011;14965;50.660;13.226;2024-01-15T09:51:35;19.80;;;8.57;;
27223;SDS011;14965;50.660;13.226;2024-01-15T09:54:04;22.35;;;8.50;;
27223;SDS011;14965;50.660;13.226;2024-01-15T09:56:30;24.08;;;8.98;;
27223;SDS011;14965;50.660;13.226;2024-01-15T09:58:56;22.70;;;8.63;;
27223;SDS011;14965;50.660;13.226;2024-01-15T10:01:22;21.60;;;8.52;;
27223;SDS011;14965;50.660;13.226;2024-01-15T10:03:50;23.58;;;7.93;;
27223;SDS011;14965;50.660;13.226;2024-01-15T10:06:17;18.80;;;8.30;;
27223;SDS011;14965;50.660;13.226;2024-01-15T10:08:43;21.73;;;7.85;;
27223;SDS011;14965;50.660;13.226;2024-01-15T10:11:16;21.42;;;9.18;;
27223;SDS011;14965;50.660;13.226;2024-01-15T10:13:42;18.55;;;7.38;;
27223;SDS011;14965;50.660;13.226;2024-01-15T10:16:09;19.83;;;7.95;;
27223;SDS011;14965;50.660;13.226;2024-01-15T10:18:35;23.90;;;8.57;;
27223;SDS011;14965;50.660;13.226;2024-01-15T10:21:01;18.38;;;8.02;;
27223;SDS011;14965;50.660;13.226;2024-01-15T10:23:29;17.58;;;7.40;;
27223;SDS011;14965;50.660;13.226;2024-01-15T10:25:57;21.40;;;7.43;;
27223;SDS011;14965;50.660;13.226;2024-01-15T10:28:25;23.45;;;9.95;;
27223;SDS011;14965;50.660;13.226;2024-01-15T10:30:52;21.30;;;7.72;;
27223;SDS011;14965;50.660;13.226;2024-01-15T10:33:21;17.27;;;7.47;;
27223;SDS011;14965;50.660;13.226;2024-01-15T10:35:48;19.23;;;7.10;;
27223;SDS011;14965;50.660;13.226;2024-01-15T10:38:14;19.00;;;6.95;;
27223;SDS011;14965;50.660;13.226;2024-01-15T10:40:42;15.02;;;7.00;;
27223;SDS011;14965;50.660;13.226;2024-01-15T10:43:08;16.33;;;7.38;;
27223;SDS011;14965;50.660;13.226;2024-01-15T10:45:34;16.30;;;7.47;;
27223;SDS011;14965;50.660;13.226;2024-01-15T10:47:59;16.13;;;6.97;;
27223;SDS011;14965;50.660;13.226;2024-01-15T10:50:26;15.93;;;7.22;;
27223;SDS011;14965;50.660;13.226;2024-01-15T10:52:54;18.23;;;6.70;;
27223;SDS011;14965;50.660;13.226;2024-01-15T10:55:22;17.27;;;6.82;;
27223;SDS011;14965;50.660;13.226;2024-01-15T10:57:51;18.17;;;8.32;;
27223;SDS011;14965;50.660;13.226;2024-01-15T11:00:18;17.03;;;7.07;;
27223;SDS011;14965;50.660;13.226;2024-01-15T11:02:45;17.88;;;7.30;;
27223;SDS011;14965;50.660;13.226;2024-01-15T11:05:11;21.30;;;8.63;;
27223;SDS011;14965;50.660;13.226;2024-01-15T11:07:38;16.60;;;8.68;;
27223;SDS011;14965;50.660;13.226;2024-01-15T11:10:05;20.10;;;8.27;;
27223;SDS011;14965;50.660;13.226;2024-01-15T11:12:32;21.85;;;8.82;;
27223;SDS011;14965;50.660;13.226;2024-01-15T11:15:02;26.73;;;11.50;;
27223;SDS011;14965;50.660;13.226;2024-01-15T11:17:30;29.48;;;12.57;;
27223;SDS011;14965;50.660;13.226;2024-01-15T11:20:25;26.23;;;9.95;;
27223;SDS011;14965;50.660;13.226;2024-01-15T11:22:51;18.55;;;7.80;;
27223;SDS011;14965;50.660;13.226;2024-01-15T11:25:18;19.98;;;8.10;;
27223;SDS011;14965;50.660;13.226;2024-01-15T11:27:45;25.88;;;9.82;;
27223;SDS011;14965;50.660;13.226;2024-01-15T11:30:14;37.50;;;11.90;;
27223;SDS011;14965;50.660;13.226;2024-01-15T11:32:40;23.92;;;8.50;;
27223;SDS011;14965;50.660;13.226;2024-01-15T11:35:06;16.55;;;7.32;;
27223;SDS011;14965;50.660;13.226;2024-01-15T11:40:24;13.73;;;6.55;;
27223;SDS011;14965;50.660;13.226;2024-01-15T11:43:03;17.80;;;6.80;;
27223;SDS011;14965;50.660;13.226;2024-01-15T11:45:31;17.52;;;6.85;;
27223;SDS011;14965;50.660;13.226;2024-01-15T11:48:11;15.98;;;6.75;;
27223;SDS011;14965;50.660;13.226;2024-01-15T11:50:39;14.30;;;6.90;;
27223;SDS011;14965;50.660;13.226;2024-01-15T11:53:08;16.08;;;6.95;;
27223;SDS011;14965;50.660;13.226;2024-01-15T11:55:43;15.90;;;6.07;;
27223;SDS011;14965;50.660;13.226;2024-01-15T11:58:10;16.25;;;6.20;;
27223;SDS011;14965;50.660;13.226;2024-01-15T12:00:40;11.65;;;6.10;;
27223;SDS011;14965;50.660;13.226;2024-01-15T12:03:08;21.63;;;8.93;;
27223;SDS011;14965;50.660;13.226;2024-01-15T12:05:36;16.05;;;6.97;;
27223;SDS011;14965;50.660;13.226;2024-01-15T12:08:03;17.30;;;6.80;;
27223;SDS011;14965;50.660;13.226;2024-01-15T12:10:30;19.05;;;7.47;;
27223;SDS011;14965;50.660;13.226;2024-01-15T12:12:57;21.42;;;9.77;;
27223;SDS011;14965;50.660;13.226;2024-01-15T12:15:25;16.83;;;8.05;;
27223;SDS011;14965;50.660;13.226;2024-01-15T12:17:55;18.03;;;7.53;;
27223;SDS011;14965;50.660;13.226;2024-01-15T12:20:22;15.77;;;6.43;;
27223;SDS011;14965;50.660;13.226;2024-01-15T12:22:49;15.18;;;6.43;;
27223;SDS011;14965;50.660;13.226;2024-01-15T12:25:15;16.45;;;7.05;;
27223;SDS011;14965;50.660;13.226;2024-01-15T12:27:41;16.75;;;6.72;;
27223;SDS011;14965;50.660;13.226;2024-01-15T12:30:10;14.93;;;5.93;;
27223;SDS011;14965;50.660;13.226;2024-01-15T12:32:37;17.40;;;7.03;;
27223;SDS011;14965;50.660;13.226;2024-01-15T12:35:07;15.27;;;6.95;;
27223;SDS011;14965;50.660;13.226;2024-01-15T12:37:34;17.80;;;6.83;;
27223;SDS011;14965;50.660;13.226;2024-01-15T12:40:01;20.77;;;7.68;;
27223;SDS011;14965;50.660;13.226;2024-01-15T12:42:28;21.05;;;8.55;;
27223;SDS011;14965;50.660;13.226;2024-01-15T12:44:55;19.20;;;8.00;;
27223;SDS011;14965;50.660;13.226;2024-01-15T12:47:21;15.00;;;6.78;;
27223;SDS011;14965;50.660;13.226;2024-01-15T12:49:47;17.58;;;7.82;;
27223;SDS011;14965;50.660;13.226;2024-01-15T12:52:15;18.95;;;7.57;;
27223;SDS011;14965;50.660;13.226;2024-01-15T12:54:44;19.08;;;7.72;;
27223;SDS011;14965;50.660;13.226;2024-01-15T12:57:09;22.27;;;9.20;;
27223;SDS011;14965;50.660;13.226;2024-01-15T12:59:35;25.48;;;9.90;;
27223;SDS011;14965;50.660;13.226;2024-01-15T13:02:01;24.55;;;10.02;;
27223;SDS011;14965;50.660;13.226;2024-01-15T13:04:28;23.85;;;8.88;;
27223;SDS011;14965;50.660;13.226;2024-01-15T13:06:53;19.85;;;8.23;;
27223;SDS011;14965;50.660;13.226;2024-01-15T13:09:21;21.48;;;8.90;;
27223;SDS011;14965;50.660;13.226;2024-01-15T13:11:46;20.20;;;8.93;;
27223;SDS011;14965;50.660;13.226;2024-01-15T13:14:13;27.45;;;11.00;;
27223;SDS011;14965;50.660;13.226;2024-01-15T13:16:39;23.52;;;8.50;;
27223;SDS011;14965;50.660;13.226;2024-01-15T13:19:05;22.17;;;9.70;;
27223;SDS011;14965;50.660;13.226;2024-01-15T13:21:31;28.48;;;10.35;;
27223;SDS011;14965;50.660;13.226;2024-01-15T13:23:57;31.58;;;10.48;;
27223;SDS011;14965;50.660;13.226;2024-01-15T13:26:24;20.98;;;8.35;;
27223;SDS011;14965;50.660;13.226;2024-01-15T13:28:50;20.58;;;8.52;;
27223;SDS011;14965;50.660;13.226;2024-01-15T13:31:16;18.55;;;8.18;;
27223;SDS011;14965;50.660;13.226;2024-01-15T13:33:42;18.83;;;7.90;;
27223;SDS011;14965;50.660;13.226;2024-01-15T13:36:08;20.63;;;8.60;;
27223;SDS011;14965;50.660;13.226;2024-01-15T13:38:34;16.65;;;8.43;;
27223;SDS011;14965;50.660;13.226;2024-01-15T13:41:00;17.25;;;8.73;;
27223;SDS011;14965;50.660;13.226;2024-01-15T13:43:27;20.65;;;9.95;;
27223;SDS011;14965;50.660;13.226;2024-01-15T13:45:53;20.70;;;9.25;;
27223;SDS011;14965;50.660;13.226;2024-01-15T13:48:19;15.85;;;7.90;;
27223;SDS011;14965;50.660;13.226;2024-01-15T13:50:45;20.13;;;8.00;;
27223;SDS011;14965;50.660;13.226;2024-01-15T13:53:11;16.33;;;7.80;;
27223;SDS011;14965;50.660;13.226;2024-01-15T13:55:37;19.20;;;9.00;;
27223;SDS011;14965;50.660;13.226;2024-01-15T13:58:03;18.83;;;7.82;;
27223;SDS011;14965;50.660;13.226;2024-01-15T14:00:30;19.38;;;8.20;;
27223;SDS011;14965;50.660;13.226;2024-01-15T14:02:56;18.02;;;8.25;;
27223;SDS011;14965;50.660;13.226;2024-01-15T14:05:22;19.02;;;7.90;;
27223;SDS011;14965;50.660;13.226;2024-01-15T14:07:48;19.63;;;8.93;;
27223;SDS011;14965;50.660;13.226;2024-01-15T14:10:14;19.02;;;8.20;;
27223;SDS011;14965;50.660;13.226;2024-01-15T14:12:41;19.40;;;8.50;;
27223;SDS011;14965;50.660;13.226;2024-01-15T14:15:07;15.50;;;8.07;;